createdAt,value
2022-09-16T00:00:35.003Z,3.25
2022-09-16T00:03:02.200Z,2.90
2022-09-16T00:05:29.534Z,3.15
2022-09-16T00:07:56.446Z,3.08
2022-09-16T00:10:23.679Z,3.60
2022-09-16T00:12:51.022Z,3.38
2022-09-16T00:15:18.296Z,2.97
2022-09-16T00:17:45.220Z,3.50
2022-09-16T00:20:12.494Z,2.65
2022-09-16T00:22:39.458Z,3.38
2022-09-16T00:25:06.841Z,2.58
2022-09-16T00:27:33.847Z,2.50
2022-09-16T00:30:00.956Z,3.00
2022-09-16T00:32:27.985Z,3.58
2022-09-16T00:34:54.958Z,3.50
2022-09-16T00:37:21.955Z,3.60
2022-09-16T00:39:49.694Z,3.03
2022-09-16T00:42:18.175Z,3.13
2022-09-16T00:44:51.188Z,3.10
2022-09-16T00:47:34.997Z,3.38
2022-09-16T00:50:17.264Z,2.92
2022-09-16T00:52:44.578Z,3.22
2022-09-16T00:55:15.702Z,4.03
2022-09-16T00:57:44.692Z,2.90
2022-09-16T01:00:13.960Z,3.78
2022-09-16T01:02:44.893Z,4.07
2022-09-16T01:05:18.763Z,3.70
2022-09-16T01:07:48.670Z,7.10
2022-09-16T01:10:21.350Z,7.38
2022-09-16T01:12:57.359Z,6.97
2022-09-16T01:15:30.568Z,6.40
2022-09-16T01:17:57.453Z,4.72
2022-09-16T01:20:49.814Z,5.00
2022-09-16T01:23:38.220Z,4.80
2022-09-16T01:26:32.567Z,8.05
2022-09-16T01:29:27.287Z,12.73
2022-09-16T01:32:11.294Z,10.93
2022-09-16T01:34:58.715Z,8.77
2022-09-16T01:37:55.482Z,6.75
2022-09-16T01:40:42.094Z,7.40
2022-09-16T01:43:17.993Z,5.82
2022-09-16T01:45:59.076Z,5.60
2022-09-16T01:48:27.679Z,5.22
2022-09-16T01:51:13.105Z,7.25
2022-09-16T01:54:08.710Z,5.82
2022-09-16T01:59:31.598Z,5.72
2022-09-16T02:02:06.560Z,4.65
2022-09-16T02:04:42.860Z,5.82
2022-09-16T02:07:13.113Z,6.20
2022-09-16T02:09:45.073Z,6.25
2022-09-16T02:12:18.593Z,5.55
2022-09-16T02:14:48.313Z,5.20
2022-09-16T02:17:20.347Z,4.43
2022-09-16T02:20:09.034Z,4.18
2022-09-16T02:22:47.146Z,3.67
2022-09-16T02:25:18.366Z,3.88
2022-09-16T02:27:49.368Z,4.28
2022-09-16T02:30:19.623Z,3.90
2022-09-16T02:32:50.614Z,3.20
2022-09-16T02:35:19.411Z,4.80
2022-09-16T02:37:55.585Z,4.18
2022-09-16T02:40:49.988Z,4.13
2022-09-16T02:43:17.496Z,4.32
2022-09-16T02:45:50.300Z,3.60
2022-09-16T02:48:41.992Z,3.90
2022-09-16T02:51:54.059Z,5.32
2022-09-16T02:54:30.450Z,4.80
2022-09-16T02:56:57.714Z,4.07
2022-09-16T02:59:25.485Z,4.47
2022-09-16T03:01:52.721Z,4.20
2022-09-16T03:04:21.455Z,5.95
2022-09-16T03:06:48.754Z,3.97
2022-09-16T03:09:24.110Z,3.58
2022-09-16T03:12:26.334Z,4.20
2022-09-16T03:15:20.669Z,4.07
2022-09-16T03:17:53.250Z,3.92
2022-09-16T03:20:47.222Z,3.58
2022-09-16T03:23:35.618Z,4.32
2022-09-16T03:26:39.044Z,4.28
2022-09-16T03:29:30.061Z,4.20
2022-09-16T03:32:27.583Z,3.83
2022-09-16T03:35:13.748Z,3.53
2022-09-16T03:37:42.913Z,3.42
2022-09-16T03:40:13.670Z,3.03
2022-09-16T03:42:44.454Z,3.47
2022-09-16T03:45:16.498Z,3.22
2022-09-16T03:47:44.947Z,4.22
2022-09-16T03:50:12.502Z,3.42
2022-09-16T03:52:39.487Z,4.78
2022-09-16T03:55:07.651Z,5.35
2022-09-16T03:57:34.825Z,3.97
2022-09-16T04:00:02.049Z,4.00
2022-09-16T04:02:39.068Z,4.20
2022-09-16T04:05:06.493Z,5.50
2022-09-16T04:07:33.723Z,4.00
2022-09-16T04:10:02.002Z,4.28
2022-09-16T04:12:29.816Z,4.43
2022-09-16T04:14:57.175Z,4.35
2022-09-16T04:17:24.204Z,4.65
2022-09-16T04:19:53.122Z,4.18
2022-09-16T04:22:20.045Z,4.28
2022-09-16T04:24:47.005Z,4.93
2022-09-16T04:27:13.888Z,4.75
2022-09-16T04:29:40.846Z,4.57
2022-09-16T04:32:07.700Z,6.38
2022-09-16T04:34:34.606Z,5.18
2022-09-16T04:37:01.912Z,5.13
2022-09-16T04:39:28.980Z,5.20
2022-09-16T04:41:56.288Z,5.50
2022-09-16T04:44:23.184Z,7.03
2022-09-16T04:46:50.075Z,7.20
2022-09-16T04:49:17.103Z,9.32
2022-09-16T04:51:44.090Z,7.20
2022-09-16T04:54:12.424Z,12.80
2022-09-16T04:56:39.312Z,13.85
2022-09-16T04:59:06.400Z,15.95
2022-09-16T05:01:37.055Z,14.45
2022-09-16T05:04:07.548Z,14.02
2022-09-16T05:06:37.434Z,12.85
2022-09-16T05:09:05.067Z,12.80
2022-09-16T05:11:34.099Z,13.50
2022-09-16T05:14:02.503Z,11.75
2022-09-16T05:16:30.299Z,10.02
2022-09-16T05:18:59.164Z,10.02
2022-09-16T05:21:28.212Z,8.02
2022-09-16T05:23:59.602Z,6.53
2022-09-16T05:26:29.065Z,5.03
2022-09-16T05:28:56.158Z,4.43
2022-09-16T05:31:28.392Z,3.67
2022-09-16T05:33:57.712Z,3.30
2022-09-16T05:36:25.985Z,4.38
2022-09-16T05:39:18.311Z,3.55
2022-09-16T05:41:40.420Z,3.40
2022-09-16T05:44:07.432Z,3.60
2022-09-16T05:46:34.562Z,3.40
2022-09-16T05:49:02.040Z,4.43
2022-09-16T05:51:29.005Z,3.10
2022-09-16T05:53:56.036Z,3.80
2022-09-16T05:56:29.157Z,3.92
2022-09-16T05:58:58.239Z,4.47
2022-09-16T06:01:27.878Z,4.40
2022-09-16T06:03:55.270Z,4.38
2022-09-16T06:06:34.425Z,3.17
2022-09-16T06:09:07.130Z,2.33
2022-09-16T06:11:38.394Z,2.30
2022-09-16T06:14:06.302Z,2.00
2022-09-16T06:16:33.957Z,2.88
2022-09-16T06:19:02.969Z,2.50
2022-09-16T06:21:30.520Z,1.58
2022-09-16T06:23:58.389Z,2.72
2022-09-16T06:26:26.965Z,2.10
2022-09-16T06:28:54.738Z,2.45
2022-09-16T06:31:25.459Z,2.53
2022-09-16T06:33:53.406Z,2.50
2022-09-16T06:36:32.343Z,2.63
2022-09-16T06:38:59.691Z,3.45
2022-09-16T06:41:26.833Z,2.70
2022-09-16T06:43:54.002Z,3.55
2022-09-16T06:46:23.696Z,4.80
2022-09-16T06:48:52.711Z,2.47
2022-09-16T06:51:24.695Z,2.72
2022-09-16T06:53:53.160Z,3.00
2022-09-16T06:56:21.861Z,2.78
2022-09-16T06:58:53.193Z,2.35
2022-09-16T07:01:22.871Z,2.72
2022-09-16T07:03:51.873Z,2.45
2022-09-16T07:06:20.587Z,2.10
2022-09-16T07:08:47.574Z,2.45
2022-09-16T07:11:20.168Z,2.55
2022-09-16T07:13:49.223Z,2.85
2022-09-16T07:16:19.921Z,2.55
2022-09-16T07:18:48.499Z,3.47
2022-09-16T07:21:20.543Z,2.78
2022-09-16T07:23:48.857Z,3.13
2022-09-16T07:26:22.959Z,3.13
2022-09-16T07:28:50.591Z,2.75
2022-09-16T07:31:20.427Z,3.50
2022-09-16T07:33:50.418Z,3.00
2022-09-16T07:36:30.145Z,2.72
2022-09-16T07:38:58.687Z,2.65
2022-09-16T07:41:31.119Z,2.50
2022-09-16T07:43:59.530Z,2.47
2022-09-16T07:46:28.566Z,2.78
2022-09-16T07:48:56.318Z,3.40
2022-09-16T07:51:25.539Z,2.75
2022-09-16T07:54:04.779Z,3.53
2022-09-16T07:56:36.874Z,2.70
2022-09-16T07:59:06.758Z,3.55
2022-09-16T08:01:36.336Z,3.53
2022-09-16T08:04:05.855Z,2.65
2022-09-16T08:06:33.547Z,3.28
2022-09-16T08:09:10.495Z,2.00
2022-09-16T08:11:49.335Z,3.25
2022-09-16T08:14:16.235Z,3.15
2022-09-16T08:16:43.111Z,3.03
2022-09-16T08:19:10.209Z,2.33
2022-09-16T08:21:37.209Z,2.97
2022-09-16T08:24:04.218Z,2.97
2022-09-16T08:26:31.097Z,2.92
2022-09-16T08:29:08.459Z,2.60
2022-09-16T08:31:36.828Z,2.70
2022-09-16T08:34:03.978Z,2.63
2022-09-16T08:36:33.292Z,2.60
2022-09-16T08:39:00.193Z,2.00
2022-09-16T08:41:32.679Z,3.35
2022-09-16T08:44:15.352Z,4.80
2022-09-16T08:46:55.951Z,3.30
2022-09-16T08:49:34.969Z,3.60
2022-09-16T08:52:10.951Z,2.28
2022-09-16T08:54:43.477Z,2.95
2022-09-16T08:57:16.072Z,2.58
2022-09-16T08:59:48.441Z,2.92
2022-09-16T09:03:01.134Z,2.65
2022-09-16T09:05:46.833Z,3.10
2022-09-16T09:08:41.199Z,2.67
2022-09-16T09:14:03.486Z,2.05
2022-09-16T09:16:42.424Z,2.30
2022-09-16T09:19:09.309Z,2.40
2022-09-16T09:22:06.891Z,2.47
2022-09-16T09:25:15.348Z,2.65
2022-09-16T09:28:00.789Z,2.25
2022-09-16T09:30:28.740Z,3.33
2022-09-16T09:33:27.747Z,2.83
2022-09-16T09:36:32.107Z,2.75
2022-09-16T09:39:32.706Z,2.28
2022-09-16T09:42:13.166Z,2.03
2022-09-16T09:45:02.431Z,3.50
2022-09-16T09:47:47.498Z,2.97
2022-09-16T09:50:24.265Z,2.63
2022-09-16T09:53:12.485Z,2.40
2022-09-16T09:55:41.836Z,2.63
2022-09-16T09:58:23.897Z,2.53
2022-09-16T10:00:53.303Z,2.53
2022-09-16T10:03:20.451Z,2.90
2022-09-16T10:05:48.635Z,2.60
2022-09-16T10:08:25.153Z,1.75
2022-09-16T10:10:57.997Z,1.77
2022-09-16T10:13:26.471Z,1.95
2022-09-16T10:16:07.224Z,2.03
2022-09-16T10:18:34.569Z,2.00
2022-09-16T10:21:12.994Z,2.63
2022-09-16T10:23:39.963Z,2.20
2022-09-16T10:26:09.880Z,3.00
2022-09-16T10:28:36.938Z,2.00
2022-09-16T10:31:07.287Z,2.33
2022-09-16T10:33:52.478Z,2.22
2022-09-16T10:36:22.366Z,2.20
2022-09-16T10:38:59.603Z,2.08
2022-09-16T10:41:50.316Z,3.10
2022-09-16T10:44:26.202Z,2.33
2022-09-16T10:46:57.396Z,2.00
2022-09-16T10:49:39.302Z,1.88
2022-09-16T10:52:30.618Z,1.92
2022-09-16T10:54:57.877Z,1.67
2022-09-16T10:57:30.598Z,2.53
2022-09-16T11:00:13.838Z,1.60
2022-09-16T11:03:17.883Z,2.80
2022-09-16T11:06:07.501Z,2.58
2022-09-16T11:09:05.557Z,1.73
2022-09-16T11:11:51.982Z,3.03
2022-09-16T11:14:51.903Z,2.20
2022-09-16T11:17:45.266Z,2.22
2022-09-16T11:20:36.576Z,2.20
2022-09-16T11:23:34.068Z,2.55
2022-09-16T11:26:19.558Z,1.90
2022-09-16T11:29:00.270Z,2.00
2022-09-16T11:31:57.272Z,2.97
2022-09-16T11:34:41.027Z,2.00
2022-09-16T11:37:07.858Z,2.33
2022-09-16T11:39:53.173Z,1.85
2022-09-16T11:42:35.175Z,2.00
2022-09-16T11:45:04.862Z,2.80
2022-09-16T11:47:57.741Z,2.85
2022-09-16T11:50:58.508Z,2.72
2022-09-16T11:53:34.988Z,3.33
2022-09-16T11:56:37.529Z,3.47
2022-09-16T11:59:30.351Z,3.10
2022-09-16T12:02:18.056Z,4.07
2022-09-16T12:04:55.204Z,3.50
2022-09-16T12:07:47.361Z,2.58
2022-09-16T12:10:26.029Z,2.92
2022-09-16T12:13:05.071Z,3.25
2022-09-16T12:15:39.787Z,2.00
2022-09-16T12:18:21.206Z,3.20
2022-09-16T12:20:58.375Z,2.63
2022-09-16T12:23:30.125Z,2.05
2022-09-16T12:26:18.486Z,2.55
2022-09-16T12:29:04.134Z,2.13
2022-09-16T12:31:34.370Z,2.25
2022-09-16T12:34:22.409Z,2.20
2022-09-16T12:37:03.745Z,1.92
2022-09-16T12:39:30.630Z,2.28
2022-09-16T12:42:18.807Z,1.80
2022-09-16T12:44:54.808Z,2.38
2022-09-16T12:48:00.078Z,2.78
2022-09-16T12:50:50.837Z,2.08
2022-09-16T12:53:35.989Z,1.92
2022-09-16T12:56:23.731Z,1.65
2022-09-16T12:59:21.159Z,2.42
2022-09-16T13:01:55.632Z,2.15
2022-09-16T13:04:33.885Z,2.08
2022-09-16T13:07:02.170Z,2.63
2022-09-16T13:09:39.681Z,1.67
2022-09-16T13:12:44.957Z,2.05
2022-09-16T13:15:42.212Z,2.03
2022-09-16T13:18:18.064Z,2.38
2022-09-16T13:20:58.074Z,1.85
2022-09-16T13:23:34.018Z,2.10
2022-09-16T13:26:07.462Z,1.45
2022-09-16T13:28:37.063Z,2.50
2022-09-16T13:31:16.794Z,1.90
2022-09-16T13:33:58.908Z,2.28
2022-09-16T13:36:25.992Z,3.00
2022-09-16T13:38:52.771Z,2.28
2022-09-16T13:41:44.203Z,1.33
2022-09-16T13:44:39.348Z,2.50
2022-09-16T13:47:14.811Z,2.47
2022-09-16T13:49:57.037Z,2.63
2022-09-16T13:52:36.061Z,1.80
2022-09-16T13:55:10.548Z,1.73
2022-09-16T13:58:15.525Z,1.60
2022-09-16T14:01:13.253Z,2.05
2022-09-16T14:03:43.549Z,1.85
2022-09-16T14:06:15.846Z,2.10
2022-09-16T14:08:54.681Z,2.72
2022-09-16T14:11:56.622Z,1.98
2022-09-16T14:17:24.442Z,2.20
2022-09-16T14:20:00.016Z,1.50
2022-09-16T14:22:27.716Z,1.70
2022-09-16T14:25:05.987Z,2.38
2022-09-16T14:27:40.070Z,1.48
2022-09-16T14:30:27.453Z,1.77
2022-09-16T14:32:54.366Z,2.10
2022-09-16T14:35:27.044Z,1.90
2022-09-16T14:38:02.347Z,2.22
2022-09-16T14:40:30.011Z,1.40
2022-09-16T14:43:06.183Z,1.52
2022-09-16T14:45:36.181Z,1.42
2022-09-16T14:48:08.672Z,2.38
2022-09-16T14:50:42.807Z,1.40
2022-09-16T14:53:35.456Z,1.15
2022-09-16T14:56:05.178Z,2.15
2022-09-16T14:58:33.970Z,1.70
2022-09-16T15:01:09.071Z,1.33
2022-09-16T15:04:02.277Z,1.35
2022-09-16T15:06:36.937Z,1.35
2022-09-16T15:09:14.174Z,1.23
2022-09-16T15:11:54.345Z,1.83
2022-09-16T15:14:21.927Z,2.05
2022-09-16T15:16:53.055Z,2.30
2022-09-16T15:19:23.924Z,2.83
2022-09-16T15:21:51.199Z,2.83
2022-09-16T15:24:26.277Z,3.00
2022-09-16T15:26:54.091Z,2.90
2022-09-16T15:29:23.871Z,2.35
2022-09-16T15:31:51.583Z,2.05
2022-09-16T15:34:21.900Z,2.13
2022-09-16T15:36:57.116Z,2.45
2022-09-16T15:39:29.894Z,2.63
2022-09-16T15:42:26.773Z,3.20
2022-09-16T15:45:04.404Z,3.15
2022-09-16T15:47:34.885Z,2.63
2022-09-16T15:50:10.442Z,3.00
2022-09-16T15:52:56.676Z,2.70
2022-09-16T15:55:58.025Z,2.78
2022-09-16T15:58:34.618Z,4.15
2022-09-16T16:01:06.056Z,2.30
2022-09-16T16:03:45.689Z,2.72
2022-09-16T16:06:13.726Z,2.65
2022-09-16T16:08:47.815Z,3.05
2022-09-16T16:11:18.027Z,2.17
2022-09-16T16:13:46.316Z,2.63
2022-09-16T16:16:16.166Z,2.58
2022-09-16T16:18:46.420Z,2.47
2022-09-16T16:21:16.826Z,3.13
2022-09-16T16:23:43.915Z,4.30
2022-09-16T16:26:11.771Z,2.65
2022-09-16T16:28:38.956Z,3.10
2022-09-16T16:31:11.094Z,4.03
2022-09-16T16:33:42.552Z,3.13
2022-09-16T16:36:15.581Z,3.22
2022-09-16T16:38:42.683Z,3.45
2022-09-16T16:41:12.410Z,3.35
2022-09-16T16:43:40.199Z,3.13
2022-09-16T16:46:07.303Z,2.60
2022-09-16T16:48:34.376Z,3.08
2022-09-16T16:51:13.034Z,4.25
2022-09-16T16:53:40.184Z,5.10
2022-09-16T16:56:15.080Z,6.00
2022-09-16T16:58:45.596Z,4.18
2022-09-16T17:01:17.991Z,5.55
2022-09-16T17:03:47.716Z,4.10
2022-09-16T17:06:15.092Z,4.30
2022-09-16T17:08:42.179Z,5.18
2022-09-16T17:11:15.075Z,4.13
2022-09-16T17:13:44.855Z,3.25
2022-09-16T17:16:14.306Z,4.65
2022-09-16T17:18:42.015Z,3.95
2022-09-16T17:21:15.638Z,3.05
2022-09-16T17:23:43.432Z,4.15
2022-09-16T17:26:11.355Z,3.20
2022-09-16T17:28:39.818Z,2.63
2022-09-16T17:31:15.143Z,2.85
2022-09-16T17:33:43.330Z,2.83
2022-09-16T17:36:13.011Z,3.50
2022-09-16T17:38:40.137Z,2.83
2022-09-16T17:41:09.735Z,4.18
2022-09-16T17:43:38.880Z,3.15
2022-09-16T17:46:08.104Z,4.18
2022-09-16T17:48:37.579Z,3.50
2022-09-16T17:51:05.333Z,3.20
2022-09-16T17:53:32.450Z,3.17
2022-09-16T17:56:08.095Z,3.60
2022-09-16T17:58:36.697Z,6.22
2022-09-16T18:01:12.070Z,3.13
2022-09-16T18:03:40.497Z,3.25
2022-09-16T18:06:23.226Z,4.22
2022-09-16T18:08:50.992Z,5.25
2022-09-16T18:11:19.051Z,4.13
2022-09-16T18:13:46.736Z,4.88
2022-09-16T18:16:19.113Z,3.42
2022-09-16T18:18:49.630Z,3.08
2022-09-16T18:21:18.431Z,4.30
2022-09-16T18:23:46.798Z,4.03
2022-09-16T18:26:15.160Z,4.28
2022-09-16T18:29:07.923Z,3.00
2022-09-16T18:31:33.306Z,3.47
2022-09-16T18:34:00.226Z,2.83
2022-09-16T18:36:30.079Z,3.45
2022-09-16T18:38:58.493Z,3.50
2022-09-16T18:41:31.141Z,2.90
2022-09-16T18:44:00.775Z,4.43
2022-09-16T18:46:32.847Z,3.90
2022-09-16T18:49:00.610Z,3.58
2022-09-16T18:51:32.472Z,3.63
2022-09-16T18:54:02.364Z,3.10
2022-09-16T18:56:34.990Z,4.20
2022-09-16T18:59:21.129Z,3.45
2022-09-16T19:01:49.616Z,4.28
2022-09-16T19:04:19.354Z,3.90
2022-09-16T19:06:50.236Z,3.45
2022-09-16T19:09:20.960Z,2.80
2022-09-16T19:11:48.502Z,3.22
2022-09-16T19:14:16.038Z,3.10
2022-09-16T19:16:44.917Z,2.20
2022-09-16T19:19:14.769Z,2.78
2022-09-16T19:21:43.039Z,2.70
2022-09-16T19:24:15.574Z,2.88
2022-09-16T19:26:44.196Z,3.80
2022-09-16T19:29:12.179Z,3.60
2022-09-16T19:31:42.604Z,2.65
2022-09-16T19:34:10.484Z,2.83
2022-09-16T19:36:38.614Z,3.03
2022-09-16T19:39:07.262Z,2.85
2022-09-16T19:41:36.211Z,2.63
2022-09-16T19:44:05.652Z,3.97
2022-09-16T19:46:37.729Z,2.97
2022-09-16T19:49:06.428Z,3.03
2022-09-16T19:51:33.446Z,3.13
2022-09-16T19:54:01.250Z,3.53
2022-09-16T19:56:32.722Z,2.60
2022-09-16T19:59:01.647Z,4.13
2022-09-16T20:01:33.592Z,3.28
2022-09-16T20:04:02.478Z,3.28
2022-09-16T20:06:33.168Z,2.65
2022-09-16T20:09:01.891Z,2.53
2022-09-16T20:11:34.173Z,2.55
2022-09-16T20:14:11.501Z,2.63
2022-09-16T20:16:39.943Z,2.28
2022-09-16T20:19:10.567Z,2.85
2022-09-16T20:21:38.031Z,2.53
2022-09-16T20:24:07.942Z,2.92
2022-09-16T20:26:36.136Z,2.65
2022-09-16T20:29:04.297Z,2.42
2022-09-16T20:31:36.469Z,2.08
2022-09-16T20:34:04.923Z,3.08
2022-09-16T20:36:35.800Z,2.65
2022-09-16T20:39:03.873Z,2.70
2022-09-16T20:41:33.090Z,2.83
2022-09-16T20:44:00.557Z,2.38
2022-09-16T20:46:31.659Z,2.60
2022-09-16T20:49:00.753Z,2.72
2022-09-16T20:51:33.556Z,2.28
2022-09-16T20:54:07.482Z,3.30
2022-09-16T20:56:38.480Z,2.75
2022-09-16T20:59:10.133Z,2.05
2022-09-16T21:01:38.676Z,2.47
2022-09-16T21:04:07.825Z,2.30
2022-09-16T21:06:36.287Z,2.10
2022-09-16T21:09:06.655Z,2.92
2022-09-16T21:11:33.988Z,2.95
2022-09-16T21:14:06.656Z,2.80
2022-09-16T21:16:36.240Z,2.90
2022-09-16T21:19:05.061Z,3.10
2022-09-16T21:21:32.268Z,3.92
2022-09-16T21:24:01.483Z,3.63
2022-09-16T21:26:31.299Z,3.53
2022-09-16T21:29:00.609Z,3.88
2022-09-16T21:31:29.326Z,2.42
2022-09-16T21:33:57.542Z,2.50
2022-09-16T21:36:27.933Z,2.70
2022-09-16T21:38:55.339Z,2.50
2022-09-16T21:41:23.410Z,2.47
2022-09-16T21:43:55.557Z,3.60
2022-09-16T21:46:33.841Z,3.00
2022-09-16T21:49:02.569Z,2.20
2022-09-16T21:51:35.365Z,2.10
2022-09-16T21:54:04.499Z,3.35
2022-09-16T21:56:32.304Z,2.92
2022-09-16T21:59:00.347Z,2.42
2022-09-16T22:01:30.376Z,2.67
2022-09-16T22:03:59.708Z,3.97
2022-09-16T22:06:27.400Z,2.92
2022-09-16T22:09:01.822Z,3.33
2022-09-16T22:11:31.465Z,3.10
2022-09-16T22:14:00.800Z,4.90
2022-09-16T22:16:30.134Z,4.30
2022-09-16T22:19:00.719Z,3.75
2022-09-16T22:21:30.326Z,3.90
2022-09-16T22:23:59.381Z,3.28
2022-09-16T22:26:27.304Z,3.33
2022-09-16T22:28:54.862Z,3.28
2022-09-16T22:31:33.053Z,2.78
2022-09-16T22:34:01.787Z,2.60
2022-09-16T22:36:33.917Z,3.17
2022-09-16T22:39:08.228Z,2.65
2022-09-16T22:41:35.175Z,2.55
2022-09-16T22:44:02.698Z,3.78
2022-09-16T22:46:35.673Z,3.08
2022-09-16T22:49:02.624Z,3.58
2022-09-16T22:51:29.779Z,3.00
2022-09-16T22:53:56.747Z,2.53
2022-09-16T22:56:28.480Z,2.65
2022-09-16T22:58:56.938Z,2.88
2022-09-16T23:01:29.646Z,2.40
2022-09-16T23:03:58.370Z,2.70
2022-09-16T23:06:27.221Z,2.60
2022-09-16T23:08:54.185Z,3.15
2022-09-16T23:11:23.927Z,2.58
2022-09-16T23:13:52.981Z,4.13
2022-09-16T23:16:23.296Z,3.30
2022-09-16T23:18:51.125Z,2.60
2022-09-16T23:21:20.422Z,2.85
2022-09-16T23:23:50.541Z,2.72
2022-09-16T23:26:21.705Z,2.47
2022-09-16T23:28:53.721Z,2.70
2022-09-16T23:31:22.934Z,3.20
2022-09-16T23:33:50.574Z,3.15
2022-09-16T23:36:18.306Z,2.65
2022-09-16T23:38:48.778Z,3.30
2022-09-16T23:41:21.521Z,2.90
2022-09-16T23:43:49.966Z,2.85
2022-09-16T23:46:20.303Z,3.35
2022-09-16T23:48:48.539Z,2.70
2022-09-16T23:51:15.421Z,3.92
2022-09-16T23:53:42.588Z,3.03
2022-09-16T23:56:12.138Z,3.20
2022-09-16T23:58:39.465Z,2.80
